This is the latest recevied weather packets stored in our database for station/object EA7RX-3. If no packets are shown the sender has not sent any weather packets the latest 10 day(s).
| Time | Temp. | Humidity | Pressure | Rain* | Wind** | Luminosity | Snow |
|---|---|---|---|---|---|---|---|
| 1777742901 | 23.89° C | 49% | 1009.9 hPa | - | - | - | - |
| 1777742302 | 21.67° C | 56% | 1010.4 hPa | - | - | - | - |
| 1777741701 | 21.11° C | 60% | 1010.3 hPa | - | - | - | - |
| 1777741102 | 21.11° C | 61% | 1010.6 hPa | - | - | - | - |
| 1777740501 | 20.56° C | 62% | 1010.8 hPa | - | - | - | - |
| 1777739901 | 21.11° C | 62% | 1010.7 hPa | - | - | - | - |
| 1777739301 | 21.67° C | 60% | 1010.5 hPa | - | - | - | - |
| 1777738701 | 20.56° C | 63% | 1010.9 hPa | - | - | - | - |
| 1777738101 | 21.11° C | 62% | 1010.6 hPa | - | - | - | - |
| 1777737501 | 21.67° C | 61% | 1010.6 hPa | - | - | - | - |
| 1777736902 | 21.11° C | 62% | 1010.7 hPa | - | - | - | - |
| 1777736301 | 21.11° C | 62% | 1010.8 hPa | - | - | - | - |
| 1777735701 | 21.67° C | 67% | 1010.7 hPa | - | - | - | - |
| 1777735101 | 21.11° C | 72% | 1010.6 hPa | - | - | - | - |
| 1777734501 | 20.56° C | 73% | 1010.9 hPa | - | - | - | - |
| 1777733901 | 21.11° C | 81% | 1010.9 hPa | - | - | - | - |
| 1777733302 | 19.44° C | 10% | - | - | - | - | - |
| 1777732701 | 19.44° C | 10% | - | - | - | - | - |
| 1777732101 | 20.56° C | 83% | 1010.9 hPa | - | - | - | - |
| 1777731501 | 21.67° C | 62% | 1010.7 hPa | - | - | - | - |
| 1777730901 | 21.67° C | 64% | 1010.8 hPa | - | - | - | - |
| 1777730301 | 21.11° C | 66% | 1011.2 hPa | - | - | - | - |
| 1777729701 | 20.56° C | 69% | 1011.3 hPa | - | - | - | - |
| 1777729101 | 20.56° C | 76% | 1011.4 hPa | - | - | - | - |
| 1777728501 | 19.44° C | 92% | 1011.9 hPa | - | - | - | - |
* Rain since midnight (hover to see other rain measurements)
** Current wind speed in m/s (hover to see current wind gust speed)